Time;durP1;ratioP1;P1;durP2;ratioP2;P2;SDS_P1;SDS_P2;PMS_P1;PMS_P2;Temp;Humidity;BMP_temperature;BMP_pressure;BME280_temperature;BME280_humidity;BME280_pressure;Samples;Min_cycle;Max_cycle;Signal;HPM_P1;HPM_P2
2022/08/31 00:04:48;;;;;;;11.65;9.70;;;;;;;13.47;73.44;97509.19;1752356;81;25674;-80
2022/08/31 00:07:15;;;;;;;12.23;9.15;;;;;;;13.45;73.57;97505.88;1752375;81;25753;-78
2022/08/31 00:09:41;;;;;;;12.35;9.50;;;;;;;13.45;73.59;97499.62;1732200;82;25910;-81
2022/08/31 00:12:08;;;;;;;17.60;10.53;;;;;;;13.41;73.56;97499.77;1732633;82;28222;-78
2022/08/31 00:14:35;;;;;;;13.38;9.90;;;;;;;13.40;73.59;97498.13;1732300;82;25671;-81
2022/08/31 00:17:02;;;;;;;12.20;9.55;;;;;;;13.40;73.58;97492.71;1732382;82;25653;-78
2022/08/31 00:19:28;;;;;;;11.75;9.53;;;;;;;13.40;73.56;97500.32;1732236;82;25742;-79
2022/08/31 00:21:55;;;;;;;11.35;9.95;;;;;;;13.39;73.62;97499.19;1732586;82;25697;-79
2022/08/31 00:24:22;;;;;;;13.40;9.35;;;;;;;13.42;73.62;97500.06;1732373;82;27320;-79
2022/08/31 00:26:48;;;;;;;18.80;9.98;;;;;;;13.41;73.47;97495.17;1718526;82;25752;-80
2022/08/31 00:29:15;;;;;;;13.55;9.63;;;;;;;13.38;73.48;97501.59;1726007;82;25245;-78
2022/08/31 00:31:41;;;;;;;10.82;9.20;;;;;;;13.34;73.51;97500.69;1732637;82;26514;-79
2022/08/31 00:34:08;;;;;;;11.33;9.53;;;;;;;13.31;73.47;97495.70;1732503;82;25804;-78
2022/08/31 00:36:35;;;;;;;11.88;9.20;;;;;;;13.29;73.50;97497.81;1711849;82;28133;-79
2022/08/31 00:39:04;;;;;;;12.30;9.33;;;;;;;13.26;73.53;97498.28;1732298;82;25680;-79
2022/08/31 00:41:36;;;;;;;10.10;8.75;;;;;;;13.24;73.56;97499.03;1732518;82;25685;-78
2022/08/31 00:44:09;;;;;;;11.40;8.35;;;;;;;13.21;73.58;97503.55;1732363;81;25846;-78
2022/08/31 00:46:40;;;;;;;11.50;8.88;;;;;;;13.17;73.53;97507.75;1732400;82;25712;-78
2022/08/31 00:49:21;;;;;;;11.12;9.00;;;;;;;13.15;73.60;97504.98;1732527;82;27352;-78
2022/08/31 00:51:53;;;;;;;9.18;8.13;;;;;;;13.13;73.60;97507.89;1566053;91;25859;-78
2022/08/31 00:54:24;;;;;;;10.03;8.05;;;;;;;13.10;73.69;97513.75;1566199;90;25377;-81
2022/08/31 00:56:52;;;;;;;9.80;8.50;;;;;;;13.10;73.68;97515.10;1566148;91;25840;-79
2022/08/31 00:59:20;;;;;;;15.05;9.38;;;;;;;13.03;73.68;97510.81;1566293;91;25766;-79
2022/08/31 01:01:47;;;;;;;10.32;8.70;;;;;;;13.00;73.80;97503.95;1566186;91;27508;-78
2022/08/31 01:04:14;;;;;;;12.53;8.73;;;;;;;12.95;73.79;97505.14;1566205;91;25925;-79
2022/08/31 01:06:43;;;;;;;8.90;8.00;;;;;;;12.95;73.87;97510.56;1566225;91;25530;-78
2022/08/31 01:09:11;;;;;;;10.32;8.43;;;;;;;12.95;73.87;97519.52;1559538;90;25931;-79
2022/08/31 01:11:39;;;;;;;10.90;9.15;;;;;;;12.93;73.86;97515.37;1568859;90;26562;-81
2022/08/31 01:14:08;;;;;;;12.20;8.30;;;;;;;12.92;73.91;97511.03;1568798;90;27708;-80
2022/08/31 01:16:39;;;;;;;9.13;8.08;;;;;;;12.86;73.98;97510.03;1568626;91;25835;-79
2022/08/31 01:19:15;;;;;;;12.65;9.25;;;;;;;12.86;74.10;97513.27;1561335;90;33116;-80
2022/08/31 01:21:50;;;;;;;10.72;8.20;;;;;;;12.86;74.16;97517.33;1492084;94;25781;-81
2022/08/31 01:24:19;;;;;;;12.33;8.50;;;;;;;12.84;74.16;97511.30;1489666;94;25940;-78
2022/08/31 01:26:47;;;;;;;13.20;9.28;;;;;;;12.85;74.26;97521.08;1493800;94;28204;-79
2022/08/31 01:29:13;;;;;;;13.35;9.78;;;;;;;12.85;74.34;97519.73;1493921;94;25438;-78
2022/08/31 01:31:44;;;;;;;9.90;8.88;;;;;;;12.86;74.38;97518.68;1493995;94;25780;-79
2022/08/31 01:34:12;;;;;;;9.68;8.70;;;;;;;12.84;74.53;97519.42;1517538;93;25700;-79
2022/08/31 01:36:41;;;;;;;11.48;9.00;;;;;;;12.82;74.67;97525.06;1519038;93;25851;-79
2022/08/31 01:39:09;;;;;;;10.53;9.15;;;;;;;12.85;74.80;97522.44;1505856;94;27477;-80
2022/08/31 01:41:42;;;;;;;11.90;10.28;;;;;;;12.87;74.95;97521.17;1518733;93;25914;-79
2022/08/31 01:44:09;;;;;;;11.50;9.95;;;;;;;12.90;74.94;97525.32;1519058;93;25983;-80
2022/08/31 01:46:36;;;;;;;18.52;11.35;;;;;;;12.92;75.03;97522.67;1519045;93;25836;-79
2022/08/31 01:49:03;;;;;;;14.07;11.93;;;;;;;12.96;75.10;97517.64;1542743;90;25786;-79
2022/08/31 01:51:30;;;;;;;20.50;12.95;;;;;;;12.99;75.19;97517.20;1587059;90;27558;-79
2022/08/31 01:53:56;;;;;;;27.73;18.17;;;;;;;12.99;75.35;97517.20;1586974;90;25784;-79
2022/08/31 01:56:31;;;;;;;26.25;18.52;;;;;;;12.99;75.54;97522.62;1645455;87;25811;-78
2022/08/31 01:58:58;;;;;;;25.05;19.10;;;;;;;13.02;75.67;97525.41;1643652;86;26479;-78
2022/08/31 02:01:30;;;;;;;22.75;17.37;;;;;;;13.08;75.76;97525.33;1635604;87;25964;-80
2022/08/31 02:03:56;;;;;;;23.00;18.07;;;;;;;13.11;75.81;97522.19;1636035;87;27551;-79
2022/08/31 02:06:23;;;;;;;22.22;17.48;;;;;;;13.16;75.83;97521.55;1635716;87;25776;-79
2022/08/31 02:08:50;;;;;;;26.02;18.10;;;;;;;13.16;75.94;97523.70;1647971;85;25970;-78
2022/08/31 02:11:17;;;;;;;23.70;18.85;;;;;;;13.16;76.05;97525.06;1684940;84;26562;-79
2022/08/31 02:13:44;;;;;;;28.77;17.82;;;;;;;13.16;76.28;97522.91;1678543;84;25838;-79
2022/08/31 02:16:10;;;;;;;22.22;16.67;;;;;;;13.10;76.37;97524.59;1673407;84;27293;-80
2022/08/31 02:18:37;;;;;;;19.48;16.05;;;;;;;13.04;76.56;97524.67;1695734;83;25788;-81
2022/08/31 02:21:04;;;;;;;22.35;17.05;;;;;;;13.05;76.69;97520.35;1691148;84;25696;-79
2022/08/31 02:23:30;;;;;;;26.27;17.57;;;;;;;13.09;76.82;97519.39;1691390;84;25756;-79
2022/08/31 02:25:57;;;;;;;24.90;17.20;;;;;;;13.10;76.94;97514.27;1691152;84;25794;-79
2022/08/31 02:28:24;;;;;;;25.02;15.00;;;;;;;13.09;76.93;97514.80;1712875;83;27482;-78
2022/08/31 02:30:50;;;;;;;18.30;15.80;;;;;;;13.10;77.03;97516.45;1690914;84;25880;-82
2022/08/31 02:33:17;;;;;;;17.70;14.58;;;;;;;13.08;76.98;97518.56;1711446;83;25807;-80
2022/08/31 02:35:44;;;;;;;18.90;14.95;;;;;;;13.10;77.08;97519.17;1690801;84;25788;-80
2022/08/31 02:38:11;;;;;;;19.87;15.43;;;;;;;13.08;77.08;97512.31;1691145;84;25783;-79
2022/08/31 02:40:39;;;;;;;20.70;16.20;;;;;;;13.08;77.20;97506.89;1699528;83;27510;-82
2022/08/31 02:43:08;;;;;;;21.90;16.10;;;;;;;13.08;77.22;97513.14;1701822;83;25471;-79
2022/08/31 02:45:37;;;;;;;19.95;15.78;;;;;;;13.11;77.25;97511.34;1690978;84;25332;-79
2022/08/31 02:48:06;;;;;;;17.50;14.85;;;;;;;13.14;77.27;97512.78;1686003;84;26532;-81
2022/08/31 02:50:35;;;;;;;20.72;14.85;;;;;;;13.15;77.27;97511.23;1649487;85;25815;-80
2022/08/31 02:53:01;;;;;;;24.00;16.02;;;;;;;13.18;77.33;97505.34;1694843;84;27375;-82
2022/08/31 02:55:28;;;;;;;17.90;14.47;;;;;;;13.20;77.33;97498.34;1668643;85;25816;-81
2022/08/31 02:57:54;;;;;;;23.50;16.15;;;;;;;13.21;77.35;97503.55;1698145;84;25821;-79
2022/08/31 03:00:23;;;;;;;20.55;15.85;;;;;;;13.21;77.39;97505.42;1668127;85;25885;-80
2022/08/31 03:02:50;;;;;;;21.85;15.85;;;;;;;13.22;77.41;97504.38;1709841;83;25747;-79
2022/08/31 03:05:19;;;;;;;21.42;16.80;;;;;;;13.22;77.42;97503.84;1725822;83;28296;-78
2022/08/31 03:07:47;;;;;;;18.50;14.70;;;;;;;13.23;77.44;97505.51;1725522;83;25905;-79
2022/08/31 03:10:15;;;;;;;20.72;15.90;;;;;;;13.24;77.46;97507.16;1689593;84;25815;-79
2022/08/31 03:12:41;;;;;;;20.70;14.83;;;;;;;13.24;77.49;97503.10;1663742;84;26459;-78
2022/08/31 03:15:09;;;;;;;23.02;16.30;;;;;;;13.24;77.49;97500.39;1675941;84;25546;-81
2022/08/31 03:17:36;;;;;;;24.20;15.50;;;;;;;13.27;77.52;97497.76;1688647;84;27464;-81
2022/08/31 03:20:05;;;;;;;20.40;15.00;;;;;;;13.27;77.56;97504.02;1677753;84;25706;-79
2022/08/31 03:22:32;;;;;;;19.12;15.75;;;;;;;13.28;77.58;97500.22;1682144;84;25873;-79
2022/08/31 03:24:59;;;;;;;22.82;16.07;;;;;;;13.29;77.59;97506.47;1688435;84;25675;-80
2022/08/31 03:27:29;;;;;;;20.23;16.27;;;;;;;13.29;77.61;97504.59;1688560;84;25755;-81
2022/08/31 03:29:56;;;;;;;20.02;15.28;;;;;;;13.29;77.59;97508.66;1670538;84;26860;-81
2022/08/31 03:32:23;;;;;;;18.82;14.45;;;;;;;13.29;77.62;97508.66;1688427;84;25936;-78
2022/08/31 03:34:58;;;;;;;17.10;14.73;;;;;;;13.29;77.64;97519.50;1668358;84;25781;-80
2022/08/31 03:37:26;;;;;;;20.23;13.95;;;;;;;13.29;77.67;97514.08;1661845;84;25876;-80
2022/08/31 03:39:52;;;;;;;21.80;13.95;;;;;;;13.29;77.67;97517.31;1679993;84;25799;-77
2022/08/31 03:42:20;;;;;;;20.02;14.03;;;;;;;13.29;77.69;97524.92;1688308;84;27617;-78
2022/08/31 03:44:47;;;;;;;16.00;13.40;;;;;;;13.26;77.70;97514.55;1707711;82;25749;-78
2022/08/31 03:47:15;;;;;;;15.68;13.45;;;;;;;13.21;77.71;97515.73;1732264;82;26776;-79
2022/08/31 03:49:42;;;;;;;17.50;14.33;;;;;;;13.19;77.88;97516.48;1719738;82;25703;-78
2022/08/31 03:52:09;;;;;;;16.02;14.30;;;;;;;13.14;77.86;97516.84;1730323;81;26664;-78
2022/08/31 03:54:36;;;;;;;18.48;13.40;;;;;;;13.11;77.94;97516.77;1733262;81;28208;-78
2022/08/31 03:57:05;;;;;;;20.17;13.65;;;;;;;13.12;78.06;97517.06;1734281;81;25768;-78
2022/08/31 03:59:32;;;;;;;18.75;13.50;;;;;;;13.14;78.08;97515.00;1733242;81;25818;-79
2022/08/31 04:01:58;;;;;;;18.95;13.62;;;;;;;13.17;78.14;97515.87;1733278;81;25763;-78
2022/08/31 04:04:24;;;;;;;15.35;13.68;;;;;;;13.17;78.17;97520.47;1733321;81;25727;-81
2022/08/31 04:06:51;;;;;;;16.12;13.65;;;;;;;13.16;78.18;97518.28;1751539;81;27359;-78
2022/08/31 04:09:18;;;;;;;15.08;13.45;;;;;;;13.18;78.22;97515.35;1730967;81;25945;-78
2022/08/31 04:11:45;;;;;;;14.68;13.10;;;;;;;13.20;78.22;97513.25;1724980;81;25812;-78
2022/08/31 04:14:12;;;;;;;20.17;13.72;;;;;;;13.21;78.35;97517.09;1728573;81;26410;-79
2022/08/31 04:16:40;;;;;;;16.77;13.45;;;;;;;13.20;78.31;97522.21;1740794;81;25878;-78
2022/08/31 04:19:08;;;;;;;16.50;13.72;;;;;;;13.22;78.30;97524.18;1724940;80;27370;-80
2022/08/31 04:21:34;;;;;;;14.53;12.80;;;;;;;13.23;78.33;97517.70;1724719;81;25811;-80
2022/08/31 04:24:03;;;;;;;13.80;12.28;;;;;;;13.25;78.25;97526.97;1724614;81;25783;-80
2022/08/31 04:26:33;;;;;;;13.65;12.25;;;;;;;13.24;78.25;97527.50;1727293;80;25789;-76
2022/08/31 04:29:01;;;;;;;12.73;11.30;;;;;;;13.25;78.30;97526.97;1736504;80;25255;-78
2022/08/31 04:31:28;;;;;;;14.75;12.23;;;;;;;13.24;78.29;97528.02;1744312;80;27388;-80
2022/08/31 04:33:55;;;;;;;12.70;11.40;;;;;;;13.24;78.31;97528.85;1744203;80;25905;-78
2022/08/31 04:36:26;;;;;;;13.03;11.63;;;;;;;13.22;78.17;97534.19;1744245;80;26528;-78
2022/08/31 04:38:56;;;;;;;13.38;12.07;;;;;;;13.15;78.23;97536.98;1744340;80;25755;-78
2022/08/31 04:41:26;;;;;;;15.15;13.00;;;;;;;13.10;78.28;97538.14;1744346;82;25713;-79
2022/08/31 04:43:57;;;;;;;14.80;13.15;;;;;;;13.07;78.44;97543.17;1744232;82;27411;-77
2022/08/31 04:46:25;;;;;;;23.98;14.68;;;;;;;13.06;78.58;97542.86;1744215;80;25699;-78
2022/08/31 04:48:52;;;;;;;18.92;14.60;;;;;;;13.08;78.64;97542.95;1744014;80;25743;-78
2022/08/31 04:51:26;;;;;;;17.02;13.88;;;;;;;13.12;78.69;97546.05;1744361;80;26541;-79
2022/08/31 04:53:54;;;;;;;19.95;14.63;;;;;;;13.13;78.74;97539.05;1652285;83;25565;-78
2022/08/31 04:56:26;;;;;;;19.32;15.32;;;;;;;13.14;78.81;97539.88;1660804;83;28282;-78
2022/08/31 04:58:56;;;;;;;19.82;15.20;;;;;;;13.13;78.88;97537.70;1647715;83;25832;-79
2022/08/31 05:01:27;;;;;;;19.37;15.60;;;;;;;13.16;78.92;97534.55;1676962;83;25811;-79
2022/08/31 05:03:56;;;;;;;17.62;15.40;;;;;;;13.19;78.99;97528.69;1652710;83;25785;-78
2022/08/31 05:06:32;;;;;;;18.07;14.95;;;;;;;13.22;79.03;97529.59;1652108;85;25371;-80
2022/08/31 05:09:03;;;;;;;15.95;14.25;;;;;;;13.26;79.10;97535.41;1645283;83;27474;-76
2022/08/31 05:11:30;;;;;;;18.20;15.20;;;;;;;13.26;79.03;97536.23;1623769;87;25809;-77
2022/08/31 05:13:59;;;;;;;18.42;14.90;;;;;;;13.30;79.00;97531.17;1632208;87;26481;-78
2022/08/31 05:16:26;;;;;;;15.23;13.62;;;;;;;13.32;79.08;97537.20;1631737;86;26688;-77
2022/08/31 05:18:53;;;;;;;16.32;14.00;;;;;;;13.31;79.00;97535.55;1626076;87;25720;-76
2022/08/31 05:21:30;;;;;;;15.48;13.28;;;;;;;13.34;79.02;97533.74;1588873;87;27399;-78
2022/08/31 05:24:01;;;;;;;14.13;12.63;;;;;;;13.38;79.09;97534.95;1654982;86;25990;-77
2022/08/31 05:26:31;;;;;;;15.83;12.68;;;;;;;13.42;79.01;97540.73;1666714;85;25856;-78
2022/08/31 05:29:00;;;;;;;15.88;14.25;;;;;;;13.44;78.97;97541.34;1666716;86;25824;-77
2022/08/31 05:31:28;;;;;;;17.67;13.80;;;;;;;13.48;78.97;97545.27;1613742;88;25848;-77
2022/08/31 05:33:56;;;;;;;16.57;13.95;;;;;;;13.52;78.90;97550.55;1595948;88;27497;-78
2022/08/31 05:36:24;;;;;;;17.57;14.30;;;;;;;13.56;78.85;97550.38;1643570;86;25780;-77
2022/08/31 05:38:52;;;;;;;19.40;14.40;;;;;;;13.57;78.91;97557.47;1653144;86;25943;-76
2022/08/31 05:41:21;;;;;;;18.80;14.58;;;;;;;13.60;78.78;97558.38;1653228;86;26364;-77
2022/08/31 05:43:48;;;;;;;15.18;13.60;;;;;;;13.66;78.72;97556.09;1666642;86;25804;-77
2022/08/31 05:46:15;;;;;;;14.80;13.25;;;;;;;13.69;78.58;97552.41;1666756;86;27379;-77
2022/08/31 05:48:43;;;;;;;15.80;14.05;;;;;;;13.69;78.67;97547.52;1666285;86;25793;-77
2022/08/31 05:51:13;;;;;;;16.60;14.00;;;;;;;13.73;78.77;97551.44;1641865;86;25871;-76
2022/08/31 05:53:40;;;;;;;17.27;14.45;;;;;;;13.75;78.78;97554.76;1658265;86;25722;-77
2022/08/31 05:56:14;;;;;;;15.20;13.65;;;;;;;13.77;78.85;97553.98;1684203;85;26563;-77
2022/08/31 05:58:43;;;;;;;16.73;14.40;;;;;;;13.78;78.95;97559.70;1654897;85;27603;-76
2022/08/31 06:01:23;;;;;;;15.28;13.68;;;;;;;13.85;79.05;97560.47;1664668;86;25723;-77
2022/08/31 06:03:50;;;;;;;16.67;13.60;;;;;;;13.93;79.05;97566.09;1684054;85;25825;-76
2022/08/31 06:06:17;;;;;;;15.50;13.48;;;;;;;13.96;79.05;97570.55;1654975;86;25948;-76
2022/08/31 06:08:44;;;;;;;15.55;13.88;;;;;;;14.00;78.93;97569.05;1702746;83;25813;-77
2022/08/31 06:11:16;;;;;;;13.90;12.55;;;;;;;14.04;78.90;97570.22;1746817;81;27455;-76
2022/08/31 06:13:42;;;;;;;15.43;13.48;;;;;;;14.10;78.88;97570.37;1732630;80;25734;-76
2022/08/31 06:16:09;;;;;;;14.63;13.13;;;;;;;14.16;78.76;97575.70;1738098;82;25862;-76
2022/08/31 06:18:37;;;;;;;15.63;14.10;;;;;;;14.19;78.63;97586.64;1738212;82;26495;-76
2022/08/31 06:21:11;;;;;;;17.02;14.65;;;;;;;14.20;78.59;97584.22;1738377;82;25764;-75
2022/08/31 06:23:41;;;;;;;14.87;13.15;;;;;;;14.24;78.67;97590.86;1749467;82;28281;-76
2022/08/31 06:26:11;;;;;;;15.10;13.50;;;;;;;14.34;78.63;97593.84;1749427;82;25781;-76
2022/08/31 06:28:39;;;;;;;16.90;13.78;;;;;;;14.38;78.70;97595.02;1728466;82;26805;-76
2022/08/31 06:31:23;;;;;;;12.58;10.93;;;;;;;14.46;78.61;97586.59;1748070;80;25764;-76
2022/08/31 06:33:50;;;;;;;;;;;;;;;14.55;78.50;97586.55;1627477;84;26033;-76
2022/08/31 06:36:21;;;;;;;12.63;11.33;;;;;;;14.65;78.53;97582.73;1645246;85;27624;-76
2022/08/31 06:38:48;;;;;;;13.20;11.63;;;;;;;14.75;78.44;97588.95;1653366;85;26078;-76
2022/08/31 06:41:19;;;;;;;11.15;10.03;;;;;;;14.86;78.35;97585.95;1650062;84;25347;-76
2022/08/31 06:43:46;;;;;;;12.00;10.65;;;;;;;14.83;78.05;97585.09;1655695;85;25750;-77
2022/08/31 06:46:16;;;;;;;13.55;11.57;;;;;;;14.85;78.29;97587.05;1652983;86;25486;-76
2022/08/31 06:48:43;;;;;;;14.47;13.00;;;;;;;14.97;78.42;97590.61;1657930;84;27405;-76
2022/08/31 06:51:11;;;;;;;13.45;11.97;;;;;;;15.08;78.45;97588.43;1659686;84;25753;-76
2022/08/31 06:53:41;;;;;;;12.65;11.38;;;;;;;15.21;78.31;97586.02;1660223;84;25757;-75
2022/08/31 06:56:12;;;;;;;12.03;10.75;;;;;;;15.29;78.10;97583.76;1657156;84;26464;-75
2022/08/31 06:58:39;;;;;;;12.93;10.40;;;;;;;15.35;77.88;97582.80;1600876;87;25823;-76
2022/08/31 07:01:17;;;;;;;11.95;9.93;;;;;;;15.42;78.03;97581.33;1600933;87;27375;-75
2022/08/31 07:03:44;;;;;;;13.22;10.82;;;;;;;15.49;78.04;97581.48;1593463;87;27623;-76
2022/08/31 07:06:16;;;;;;;15.78;10.98;;;;;;;15.60;78.03;97580.38;1600810;87;25962;-76
2022/08/31 07:08:46;;;;;;;11.88;10.65;;;;;;;15.70;77.77;97583.31;1597254;87;25713;-76
2022/08/31 07:11:22;;;;;;;14.10;10.38;;;;;;;15.78;77.52;97587.88;1604804;88;25931;-76
2022/08/31 07:13:51;;;;;;;12.98;11.03;;;;;;;15.88;77.41;97587.25;1536258;91;27473;-76
2022/08/31 07:16:21;;;;;;;11.25;10.10;;;;;;;15.96;77.36;97590.13;1536632;91;25930;-75
2022/08/31 07:18:51;;;;;;;13.93;9.90;;;;;;;16.05;77.15;97584.61;1536744;91;26272;-76
2022/08/31 07:21:33;;;;;;;12.25;8.85;;;;;;;16.13;76.82;97584.22;1536688;91;26485;-76
2022/08/31 07:24:01;;;;;;;;;;;;;;;16.15;76.85;97581.55;1517936;93;25852;-76
2022/08/31 07:26:39;;;;;;;11.10;8.18;;;;;;;16.23;76.98;97583.59;1514994;93;28338;-75
2022/08/31 07:29:08;;;;;;;10.93;9.08;;;;;;;16.32;76.99;97584.84;1526125;93;25901;-75
2022/08/31 07:31:41;;;;;;;11.97;8.63;;;;;;;16.45;76.76;97588.10;1510700;94;25849;-76
2022/08/31 07:34:06;;;;;;;12.25;8.80;;;;;;;16.56;76.58;97585.86;1498804;95;25865;-76
2022/08/31 07:42:07;;;;;;;10.20;8.68;;;;;;;16.68;76.55;97580.37;1550972;92;26999;-76
2022/08/31 07:44:26;;;;;;;8.88;7.97;;;;;;;16.98;76.01;97579.25;1551142;92;25798;-76
2022/08/31 07:46:53;;;;;;;10.13;8.08;;;;;;;17.05;75.74;97580.72;1550961;92;25790;-76
2022/08/31 07:49:21;;;;;;;12.23;7.83;;;;;;;17.11;75.79;97587.09;1551123;92;25832;-76
2022/08/31 07:51:49;;;;;;;10.23;6.80;;;;;;;17.18;75.68;97587.20;1551033;92;27093;-76
2022/08/31 07:54:26;;;;;;;7.45;5.92;;;;;;;17.26;75.59;97594.16;1551922;92;25354;-76
2022/08/31 07:56:55;;;;;;;7.25;5.45;;;;;;;17.33;75.15;97595.34;1552475;90;25844;-76
2022/08/31 07:59:22;;;;;;;6.58;5.92;;;;;;;17.37;74.85;97593.23;1552399;90;25699;-76
2022/08/31 08:01:49;;;;;;;7.85;6.15;;;;;;;17.42;74.63;97593.30;1552617;90;25938;-76
2022/08/31 08:04:25;;;;;;;6.78;5.22;;;;;;;17.48;74.37;97591.48;1552491;90;28116;-76
2022/08/31 08:06:55;;;;;;;6.00;5.17;;;;;;;17.53;74.12;97592.37;1552368;90;25906;-76
2022/08/31 08:09:28;;;;;;;6.90;5.40;;;;;;;17.59;73.86;97594.11;1552394;90;25957;-76
2022/08/31 08:11:57;;;;;;;6.65;5.97;;;;;;;17.66;73.73;97588.48;1695165;82;26540;-76
2022/08/31 08:14:24;;;;;;;6.60;5.75;;;;;;;17.68;73.85;97590.43;1701113;82;26445;-76
2022/08/31 08:16:51;;;;;;;8.73;5.92;;;;;;;17.69;74.12;97592.63;1703234;82;28094;-76
2022/08/31 08:19:18;;;;;;;6.15;5.55;;;;;;;17.77;74.19;97598.47;1698170;82;25672;-76
2022/08/31 08:21:45;;;;;;;6.47;4.37;;;;;;;17.80;73.93;97602.60;1733912;81;25842;-76
2022/08/31 08:24:14;;;;;;;10.05;5.25;;;;;;;17.75;73.31;97605.28;1736104;81;25775;-77
2022/08/31 08:26:47;;;;;;;6.28;4.62;;;;;;;17.75;73.39;97608.01;1734109;81;25840;-76
2022/08/31 08:29:15;;;;;;;6.05;3.62;;;;;;;17.83;73.34;97596.64;1733041;81;27408;-77
2022/08/31 08:31:43;;;;;;;3.52;2.58;;;;;;;17.95;73.13;97602.81;1712090;81;25850;-76
2022/08/31 08:34:10;;;;;;;5.60;3.25;;;;;;;18.03;72.84;97602.89;1726360;81;26059;-75
2022/08/31 08:36:39;;;;;;;2.50;2.20;;;;;;;18.15;72.92;97603.05;1720298;82;25731;-76
2022/08/31 08:39:09;;;;;;;2.75;1.85;;;;;;;18.22;72.44;97591.41;1717795;82;25907;-76
2022/08/31 08:41:39;;;;;;;1.62;1.40;;;;;;;18.27;71.98;97592.81;1712125;82;28200;-76
2022/08/31 08:44:10;;;;;;;4.42;1.87;;;;;;;18.34;71.84;97596.19;1711950;82;25696;-76
2022/08/31 08:46:52;;;;;;;3.15;1.80;;;;;;;18.45;71.94;97599.86;1721414;82;25752;-77
2022/08/31 08:49:45;;;;;;;2.45;2.25;;;;;;;18.55;71.55;97596.41;1718053;81;25851;-76
2022/08/31 08:52:26;;;;;;;2.83;1.77;;;;;;;18.63;71.30;97599.52;1719128;82;26921;-76
2022/08/31 08:54:55;;;;;;;2.62;1.70;;;;;;;18.74;70.99;97600.44;1738572;81;28447;-78
2022/08/31 08:57:26;;;;;;;2.58;1.90;;;;;;;18.85;70.68;97589.05;1740701;80;25724;-78
2022/08/31 09:00:02;;;;;;;3.72;1.80;;;;;;;18.90;70.23;97593.22;1740744;80;25668;-77
2022/08/31 09:02:46;;;;;;;2.00;1.80;;;;;;;18.91;69.75;97591.59;1741528;80;25806;-77
2022/08/31 09:05:36;;;;;;;2.42;1.80;;;;;;;18.95;69.84;97592.73;1738049;80;25999;-77
2022/08/31 09:08:38;;;;;;;2.15;1.65;;;;;;;19.00;69.62;97591.39;1735087;80;27431;-77
2022/08/31 09:11:40;;;;;;;2.50;1.70;;;;;;;19.04;69.29;97592.53;1739275;80;26578;-76
2022/08/31 09:14:30;;;;;;;1.50;1.20;;;;;;;19.10;69.27;97589.81;1762342;79;25796;-77
2022/08/31 09:17:38;;;;;;;1.27;1.10;;;;;;;19.11;68.66;97583.27;1759412;79;25843;-77
2022/08/31 09:20:07;;;;;;;2.65;0.95;;;;;;;19.14;67.93;97581.38;1753637;80;25962;-78
2022/08/31 09:22:54;;;;;;;1.40;1.30;;;;;;;19.22;67.89;97578.14;1744562;80;28189;-77
2022/08/31 09:25:36;;;;;;;1.20;0.90;;;;;;;19.34;67.81;97571.94;1754588;80;27439;-77
2022/08/31 09:28:07;;;;;;;1.12;1.02;;;;;;;19.51;67.74;97572.64;1620796;86;25923;-77
2022/08/31 09:30:45;;;;;;;1.92;1.50;;;;;;;19.70;67.03;97570.28;1627558;86;26636;-76
2022/08/31 09:33:33;;;;;;;2.20;1.72;;;;;;;19.82;66.68;97567.33;1571166;90;25989;-76
2022/08/31 09:36:19;;;;;;;4.50;2.50;;;;;;;19.88;66.60;97566.27;1574233;90;27402;-76
2022/08/31 09:38:47;;;;;;;4.15;2.20;;;;;;;19.93;65.78;97567.10;1571969;90;25780;-77
2022/08/31 09:41:34;;;;;;;6.87;2.65;;;;;;;19.90;65.39;97558.62;1574954;90;25883;-77
2022/08/31 09:44:30;;;;;;;3.87;2.12;;;;;;;19.91;65.37;97561.64;1571158;90;25983;-77
2022/08/31 09:47:01;;;;;;;2.17;1.70;;;;;;;19.98;65.36;97560.83;1573887;90;25747;-77
2022/08/31 09:49:35;;;;;;;3.05;1.60;;;;;;;20.09;65.54;97563.89;1573564;90;27406;-77
2022/08/31 09:55:13;;;;;;;2.72;1.80;;;;;;;20.27;64.83;97549.72;1574947;90;25833;-76
2022/08/31 09:58:07;;;;;;;1.57;1.45;;;;;;;20.35;65.04;97551.09;1521794;93;25832;-76
2022/08/31 10:00:38;;;;;;;1.70;1.32;;;;;;;20.41;64.50;97546.73;1501054;93;25829;-76
2022/08/31 10:03:22;;;;;;;3.72;1.67;;;;;;;20.48;64.45;97552.80;1502039;93;27423;-76
2022/08/31 10:05:51;;;;;;;1.62;1.52;;;;;;;20.71;64.08;97545.16;1501523;93;25947;-76
2022/08/31 10:08:39;;;;;;;2.35;1.70;;;;;;;20.71;64.08;97545.16;1502504;94;25812;-75
2022/08/31 10:11:14;;;;;;;2.70;1.80;;;;;;;20.69;63.59;97531.71;1532619;90;26991;-77
2022/08/31 10:13:53;;;;;;;2.65;2.30;;;;;;;20.86;63.52;97553.41;1547825;90;25846;-76
2022/08/31 10:16:37;;;;;;;3.15;1.90;;;;;;;20.91;63.33;97554.77;1465424;96;29312;-76
2022/08/31 10:19:14;;;;;;;2.90;2.10;;;;;;;20.87;63.33;97551.48;1515074;94;26504;-76
2022/08/31 10:21:50;;;;;;;7.00;2.20;;;;;;;20.97;63.13;97555.05;1511648;94;25959;-76
2022/08/31 10:24:32;;;;;;;2.60;1.95;;;;;;;20.98;62.79;97561.37;1532675;89;26477;-77
2022/08/31 10:27:31;;;;;;;11.25;7.45;;;;;;;20.94;62.13;97557.52;1583324;89;25765;-77
2022/08/31 10:30:23;;;;;;;4.80;3.50;;;;;;;20.85;61.63;97555.88;1544033;91;27604;-77
2022/08/31 10:33:19;;;;;;;5.87;3.35;;;;;;;20.86;62.01;97550.66;1488988;94;25963;-77
2022/08/31 10:35:53;;;;;;;5.05;2.72;;;;;;;20.92;62.21;97563.27;1489207;94;25794;-75
2022/08/31 10:38:28;;;;;;;3.72;2.30;;;;;;;20.85;61.90;97551.76;1512095;93;25753;-76
2022/08/31 10:41:11;;;;;;;2.70;2.08;;;;;;;20.70;62.11;97524.31;1489173;94;25872;-77
2022/08/31 10:44:04;;;;;;;3.95;2.52;;;;;;;20.70;62.11;97524.31;1481506;95;27515;-76
2022/08/31 10:46:33;;;;;;;2.40;2.00;;;;;;;20.84;61.90;97544.63;1417898;100;25945;-77
2022/08/31 10:49:03;;;;;;;4.20;2.10;;;;;;;20.79;61.68;97541.86;1414125;101;25977;-76
2022/08/31 10:52:01;;;;;;;3.35;2.58;;;;;;;20.74;61.96;97550.11;1423108;100;25889;-76
2022/08/31 10:54:48;;;;;;;3.75;2.33;;;;;;;20.74;61.96;97550.11;1414071;100;25782;-76
2022/08/31 10:57:50;;;;;;;3.37;2.77;;;;;;;20.55;61.84;97520.99;1393034;102;27024;-77
2022/08/31 11:00:46;;;;;;;5.78;2.70;;;;;;;20.55;61.84;97520.99;1391962;102;25454;-77
2022/08/31 11:03:42;;;;;;;5.05;2.90;;;;;;;20.58;61.72;97547.06;1396768;100;25943;-76
2022/08/31 11:06:35;;;;;;;3.35;2.90;;;;;;;20.56;62.09;97547.88;1400656;98;25621;-76
2022/08/31 11:09:11;;;;;;;20.48;12.20;;;;;;;20.56;62.09;97547.88;1428357;99;25900;-76
2022/08/31 11:12:05;;;;;;;12.05;7.75;;;;;;;20.53;62.07;97541.58;1397071;99;28282;-77
2022/08/31 11:14:57;;;;;;;18.40;9.60;;;;;;;20.54;61.94;97541.83;1470507;96;25926;-76
2022/08/31 11:17:46;;;;;;;23.27;13.38;;;;;;;20.48;62.06;97542.39;1408210;100;25891;-77
2022/08/31 11:20:51;;;;;;;28.83;16.42;;;;;;;20.41;61.94;97539.06;1405898;100;25971;-76
2022/08/31 11:23:25;;;;;;;26.57;13.78;;;;;;;20.30;61.83;97543.67;1406361;100;25825;-76
2022/08/31 11:26:12;;;;;;;14.55;7.47;;;;;;;20.10;62.15;97536.22;1404562;100;28399;-76
2022/08/31 11:28:47;;;;;;;11.03;7.08;;;;;;;19.95;62.07;97533.96;1404652;100;25955;-76
2022/08/31 11:31:22;;;;;;;9.33;6.80;;;;;;;19.72;62.15;97536.06;1412936;98;26669;-76
2022/08/31 11:33:56;;;;;;;6.78;5.22;;;;;;;19.59;62.38;97535.72;1385353;102;26939;-76
2022/08/31 11:36:45;;;;;;;5.85;5.08;;;;;;;19.38;62.46;97534.20;1392640;102;25907;-76
2022/08/31 11:39:17;;;;;;;13.75;8.98;;;;;;;19.23;62.94;97540.95;1367460;104;27483;-76
2022/08/31 11:41:49;;;;;;;14.83;8.45;;;;;;;19.14;63.35;97538.97;1412062;101;33297;-76
2022/08/31 11:44:32;;;;;;;;;;;;;;;19.11;63.56;97536.20;1417285;101;25857;-77
2022/08/31 11:47:14;;;;;;;25.23;12.98;;;;;;;19.13;63.75;97542.79;1414420;101;25706;-77
2022/08/31 11:49:46;;;;;;;8.33;6.20;;;;;;;19.11;63.86;97540.31;1432484;99;25884;-77
2022/08/31 11:52:30;;;;;;;8.48;6.15;;;;;;;19.03;63.81;97540.27;1462945;96;28083;-76
2022/08/31 11:55:21;;;;;;;8.30;6.92;;;;;;;18.97;64.02;97532.27;1497745;94;25828;-76
2022/08/31 11:58:10;;;;;;;14.85;7.67;;;;;;;18.89;64.16;97535.49;1494433;95;26498;-77
2022/08/31 12:00:58;;;;;;;8.85;6.10;;;;;;;18.85;64.62;97542.02;1493313;95;26642;-76